Latest Weather Observations for Keith West

IDS60801

Issued at 4:31 pm CST Saturday 4 July 2015 (issued every 30 minutes, with the page automatically refreshed every 10 minutes)

About weather observations | Map of weather stations | Latest weather observations for SA | Other Formats
Station Details ID: 025557 Name: MUNKORA Lat: -36.11 Lon: 140.33 Height: 27.0 m
Data from the previous 72 hours. | See also: Recent months for locations in South Australia
Date/Time
CST
Temp
°C
App
Temp
°C
Dew
Point
Rel
Hum
%
Delta-T
°C
Wind Press
QNH
hPa
Press
MSL
hPa
Rain
since 9 am
mm
Dir
 
Spd
km/h
Gust
km/h
Spd
kts
Gust
kts
04/04:30pm 14.1 12.0 6.5 60 3.6 NW 7 11 4 6 1021.5 1021.6 0.0
04/04:00pm 14.6 12.0 5.9 56 4.1 WNW 9 11 5 6 1021.6 1021.7 0.0
04/03:30pm 15.1 12.8 5.9 54 4.4 WSW 7 11 4 6 1021.6 1021.7 0.0
04/03:00pm 15.1 12.5 6.1 55 4.3 W 9 13 5 7 1021.7 1021.8 0.0
04/02:30pm 15.1 12.0 5.6 53 4.5 NW 11 15 6 8 1021.7 1021.8 0.0
04/02:00pm 15.8 12.7 5.7 51 4.8 WNW 11 17 6 9 1021.8 1021.9 0.0
04/01:30pm 15.3 11.8 5.5 52 4.6 WNW 13 17 7 9 1022.1 1022.2 0.0
04/01:00pm 14.9 11.0 5.4 53 4.5 WNW 15 19 8 10 1022.5 1022.6 0.0
04/12:30pm 14.5 10.6 5.3 54 4.3 WNW 15 19 8 10 1022.9 1023.0 0.0
04/12:00pm 13.3 9.7 5.2 58 3.8 WNW 13 17 7 9 1023.5 1023.6 0.0
04/11:30am 13.1 9.2 5.3 59 3.6 WNW 15 17 8 9 1023.8 1023.9 0.0
04/11:00am 12.3 8.7 5.2 62 3.3 WNW 13 15 7 8 1024.1 1024.2 0.0
04/10:30am 11.7 8.5 5.1 64 3.0 WNW 11 15 6 8 1024.4 1024.5 0.0
04/10:00am 11.4 8.2 5.1 65 2.9 WNW 11 15 6 8 1024.5 1024.6 0.0
04/09:30am 10.2 7.7 4.6 68 2.5 WNW 7 9 4 5 1024.4 1024.5 0.0
04/09:00am 9.2 6.7 4.6 73 2.0 NW 7 9 4 5 1024.1 1024.2 0.0
04/08:30am 8.2 4.0 3.7 73 1.9 NW 15 17 8 9 1024.0 1024.1 0.0
04/08:00am 7.8 4.7 3.7 75 1.8 NW 9 11 5 6 1024.1 1024.2 0.0
04/07:30am 7.5 4.4 3.7 77 1.6 NW 9 11 5 6 1024.0 1024.1 0.0
04/07:00am 7.5 4.4 3.6 76 1.7 NNW 9 11 5 6 1023.9 1024.0 0.0
04/06:30am 7.3 4.6 3.7 78 1.5 NNW 7 9 4 5 1023.9 1024.0 0.0
04/06:00am 7.1 5.0 3.7 79 1.4 NW 4 6 2 3 1023.9 1024.0 0.0
04/05:30am 7.1 4.4 3.9 80 1.4 NW 7 7 4 4 1023.6 1023.7 0.0
04/05:00am 6.9 4.8 3.7 80 1.4 NNW 4 4 2 2 1023.6 1023.7 0.0
04/04:30am 7.3 5.5 3.5 77 1.6 NNW 2 4 1 2 1023.5 1023.6 0.0
04/04:00am 7.3 4.8 3.5 77 1.6 NNW 6 6 3 3 1023.6 1023.7 0.0
04/03:30am 7.2 5.8 3.6 78 1.5 CALM 0 0 0 0 1023.7 1023.8 0.0
04/03:00am 7.3 5.5 3.5 77 1.6 NW 2 4 1 2 1023.8 1023.9 0.0
04/02:30am 6.9 4.4 3.7 80 1.4 NNW 6 6 3 3 1024.0 1024.1 0.0
04/02:00am 6.6 4.4 3.2 79 1.4 NNW 4 6 2 3 1024.0 1024.1 0.0
04/01:30am 6.1 3.2 2.7 79 1.4 NNW 7 9 4 5 1024.1 1024.2 0.0
04/01:00am 5.9 3.1 3.1 82 1.2 NNW 7 9 4 5 1024.3 1024.4 0.0
04/12:30am 5.9 3.2 2.5 79 1.4 NNW 6 6 3 3 1024.4 1024.5 0.0
04/12:00am 6.2 3.3 2.7 78 1.4 NNW 7 7 4 4 1024.8 1024.9 0.0
 
Date/Time
CST
Temp
°C
App
Temp
°C
Dew
Point
Rel
Hum
%
Delta-T
°C
Wind Press
QNH
hPa
Press
MSL
hPa
Rain
since 9 am
mm
Dir
 
Spd
km/h
Gust
km/h
Spd
kts
Gust
kts
03/11:30pm 6.2 3.5 2.8 79 1.4 NNW 6 7 3 4 1025.1 1025.2 0.0
03/11:00pm 6.3 3.4 2.8 78 1.4 NW 7 9 4 5 1025.3 1025.4 0.0
03/10:30pm 6.5 3.6 2.8 77 1.5 NW 7 9 4 5 1025.5 1025.6 0.0
03/10:00pm 7.0 4.7 2.7 74 1.8 NW 4 6 2 3 1025.7 1025.8 0.0
03/09:30pm 6.9 4.2 2.8 75 1.7 WNW 6 6 3 3 1026.0 1026.1 0.0
03/09:00pm 6.4 4.1 3.0 79 1.4 WNW 4 6 2 3 1026.0 1026.1 0.0
03/08:30pm 6.5 4.3 3.3 80 1.3 WNW 4 4 2 2 1026.0 1026.1 0.0
03/08:00pm 6.7 4.4 3.0 77 1.5 WNW 4 6 2 3 1025.9 1026.0 0.0
03/07:30pm 6.8 4.5 2.5 74 1.8 WNW 4 6 2 3 1026.0 1026.1 0.0
03/07:00pm 7.6 4.3 2.5 70 2.1 NW 9 9 5 5 1025.8 1025.9 0.0
03/06:30pm 8.0 5.3 2.5 68 2.3 NNW 6 6 3 3 1025.9 1026.0 0.0
03/06:00pm 8.2 5.5 2.4 67 2.4 NW 6 6 3 3 1026.1 1026.2 0.0
03/05:30pm 8.7 5.9 2.1 63 2.7 W 6 7 3 4 1026.4 1026.5 0.0
03/05:00pm 9.5 6.5 2.1 60 3.1 WNW 7 9 4 5 1026.1 1026.2 0.0
03/04:30pm 10.5 6.7 1.6 54 3.7 WNW 11 13 6 7 1026.2 1026.3 0.0
03/04:00pm 11.2 7.7 1.5 51 4.1 W 9 11 5 6 1026.3 1026.4 0.0
03/03:30pm 11.4 7.9 1.1 49 4.3 W 9 13 5 7 1026.4 1026.5 0.0
03/03:00pm 11.6 8.3 0.4 46 4.6 W 7 9 4 5 1026.6 1026.7 0.0
03/02:30pm 11.6 8.0 0.4 46 4.6 W 9 15 5 8 1026.6 1026.7 0.0
03/02:00pm 11.8 7.8 0.6 46 4.6 W 11 15 6 8 1026.8 1026.9 0.0
03/01:30pm 11.5 7.6 0.9 48 4.4 W 11 17 6 9 1026.9 1027.0 0.0
03/01:00pm 11.4 8.3 1.4 50 4.2 W 7 13 4 7 1027.3 1027.4 0.0
03/12:30pm 11.1 7.1 0.8 49 4.2 WNW 11 17 6 9 1027.7 1027.8 0.0
03/12:00pm 11.2 7.6 0.3 47 4.4 NW 9 15 5 8 1028.3 1028.4 0.0
03/11:30am 11.8 7.9 1.2 48 4.4 NW 11 17 6 9 1029.0 1029.1 0.0
03/11:00am 11.0 6.7 1.0 50 4.2 NNW 13 17 7 9 1029.4 1029.5 0.0
03/10:30am 10.0 6.3 2.4 59 3.2 NW 11 15 6 8 1030.0 1030.1 0.0
03/10:00am 8.1 5.2 2.8 69 2.2 NNW 7 11 4 6 1030.2 1030.3 0.0
03/09:30am 6.4 3.5 2.7 77 1.5 NW 7 9 4 5 1030.2 1030.3 0.0
03/09:00am 4.0 1.3 2.7 91 0.5 N 6 7 3 4 1029.9 1030.0 0.0
03/08:30am -0.1 -3.4 -0.9 94 0.3 N 6 6 3 3 1029.8 1029.9 0.0
03/08:00am -2.1 -4.5 -2.8 95 0.1 CALM 0 0 0 0 1029.8 1029.9 0.0
03/07:30am -2.7 -5.1 -3.4 95 0.1 CALM 0 0 0 0 1029.8 1029.9 0.0
03/07:00am -2.9 -5.4 -3.6 95 0.1 CALM 0 0 0 0 1029.7 1029.8 0.0
03/06:30am -2.4 -5.6 -3.1 95 0.1 ESE 4 6 2 3 1029.6 1029.7 0.0
03/06:00am -2.4 -4.8 -3.1 95 0.1 CALM 0 4 0 2 1029.6 1029.7 0.0
03/05:30am -2.2 -4.6 -3.0 94 0.2 CALM 0 0 0 0 1029.6 1029.7 0.0
03/05:00am -1.6 -3.9 -2.3 95 0.2 CALM 0 0 0 0 1029.5 1029.6 0.0
03/04:30am -2.0 -4.4 -2.8 94 0.2 CALM 0 0 0 0 1029.1 1029.2 0.0
03/04:00am -1.4 -3.7 -2.2 94 0.2 CALM 0 0 0 0 1029.2 1029.3 0.0
03/03:30am -1.6 -3.9 -2.4 94 0.2 CALM 0 0 0 0 1029.5 1029.6 0.0
03/03:00am -1.8 -4.1 -2.6 94 0.2 CALM 0 0 0 0 1029.6 1029.7 0.0
03/02:30am -0.8 -3.0 -1.6 94 0.2 CALM 0 0 0 0 1029.7 1029.8 0.0
03/02:00am -1.3 -3.6 -2.3 93 0.3 CALM 0 0 0 0 1029.8 1029.9 0.0
03/01:30am 0.0 -2.1 -0.8 94 0.3 CALM 0 0 0 0 1030.1 1030.2 0.0
03/01:00am -0.9 -3.2 -2.0 92 0.3 CALM 0 0 0 0 1029.9 1030.0 0.0
03/12:30am 0.4 -1.7 -0.6 93 0.4 CALM 0 0 0 0 1030.2 1030.3 0.0
03/12:00am 0.5 -1.6 -0.6 92 0.4 CALM 0 0 0 0 1030.4 1030.5 0.0
 
Date/Time
CST
Temp
°C
App
Temp
°C
Dew
Point
Rel
Hum
%
Delta-T
°C
Wind Press
QNH
hPa
Press
MSL
hPa
Rain
since 9 am
mm
Dir
 
Spd
km/h
Gust
km/h
Spd
kts
Gust
kts
02/11:30pm 1.3 -0.7 0.1 92 0.4 CALM 0 0 0 0 1030.5 1030.6 0.0
02/11:00pm 1.2 -0.8 -0.1 91 0.5 CALM 0 0 0 0 1030.4 1030.5 0.0
02/10:30pm 1.9 0.0 0.6 91 0.5 CALM 0 0 0 0 1030.4 1030.5 0.0
02/10:00pm 1.8 -0.2 0.2 89 0.6 CALM 0 0 0 0 1030.4 1030.5 0.0
02/09:30pm 2.6 0.8 1.0 89 0.6 CALM 0 0 0 0 1030.5 1030.6 0.0
02/09:00pm 3.4 1.6 1.3 86 0.8 CALM 0 0 0 0 1030.3 1030.4 0.0
02/08:30pm 3.3 0.2 0.2 80 1.2 SE 6 6 3 3 1030.2 1030.3 0.0
02/08:00pm 4.4 1.4 0.6 76 1.5 ESE 6 9 3 5 1030.1 1030.2 0.0
02/07:30pm 6.2 3.2 1.9 74 1.7 SSE 7 7 4 4 1030.1 1030.2 0.0
02/07:00pm 7.0 4.0 2.3 72 1.9 SE 7 9 4 5 1029.8 1029.9 0.0
02/06:30pm 7.4 4.7 2.5 71 2.0 SE 6 9 3 5 1029.5 1029.6 0.0
02/06:00pm 8.5 5.4 3.6 71 2.1 SE 9 11 5 6 1029.2 1029.3 0.0
02/05:30pm 9.9 7.5 4.3 68 2.5 ESE 6 7 3 4 1029.1 1029.2 0.0
02/05:00pm 11.2 8.6 4.4 63 3.1 SE 7 9 4 5 1028.9 1029.0 0.0
02/04:30pm 11.2 8.3 4.4 63 3.0 ESE 9 13 5 7 1028.8 1028.9 0.0
02/04:00pm 12.0 6.7 5.0 62 3.2 SE 22 28 12 15 1028.6 1028.7 0.0
02/03:30pm 13.3 8.8 4.2 54 4.1 SSE 17 26 9 14 1028.3 1028.4 0.0
02/03:00pm 12.8 8.1 5.0 59 3.6 SSE 19 24 10 13 1028.2 1028.3 0.0
02/02:30pm 12.8 7.5 5.2 60 3.5 SSE 22 32 12 17 1028.0 1028.1 0.0
02/02:00pm 13.4 8.5 5.3 58 3.8 SSE 20 28 11 15 1027.8 1027.9 0.0
02/01:30pm 14.1 8.8 2.0 44 5.3 SSE 19 26 10 14 1027.7 1027.8 0.0
02/01:00pm 14.6 8.6 1.2 40 5.8 S 22 30 12 16 1027.6 1027.7 0.0
02/12:30pm 14.1 8.6 2.0 44 5.3 SSE 20 30 11 16 1027.8 1027.9 0.0
02/12:00pm 14.2 8.8 2.5 45 5.1 SSE 20 30 11 16 1028.0 1028.1 0.0
02/11:30am 13.8 7.8 3.6 50 4.6 SSE 24 30 13 16 1028.1 1028.2 0.0
02/11:00am 13.5 8.2 5.2 57 3.9 SSE 22 30 12 16 1028.2 1028.3 0.0
02/10:30am 12.9 8.4 6.3 64 3.1 SSE 19 28 10 15 1028.1 1028.2 0.0
02/10:00am 12.4 9.7 7.3 71 2.5 SSE 11 17 6 9 1027.7 1027.8 0.0
02/09:30am 11.1 8.6 6.5 73 2.2 S 9 13 5 7 1027.4 1027.5 0.0
02/09:00am 10.0 7.6 6.9 81 1.5 SSE 9 13 5 7 1027.1 1027.2 1.2
02/08:30am 8.8 6.9 7.4 91 0.7 SSW 7 9 4 5 1026.9 1027.0 1.2
02/08:00am 7.0 4.9 5.6 91 0.6 SSW 6 7 3 4 1026.7 1026.8 1.2
02/07:30am 7.7 5.6 5.8 88 0.9 S 6 7 3 4 1026.4 1026.5 1.2
02/07:00am 9.1 6.8 7.4 89 0.8 SSE 9 11 5 6 1026.1 1026.2 1.2
02/06:30am 9.9 7.4 8.2 89 0.8 SSE 11 13 6 7 1025.7 1025.8 1.2
02/06:00am 10.8 8.6 9.4 91 0.7 S 11 15 6 8 1025.3 1025.4 1.2
02/05:30am 11.0 8.5 9.6 91 0.7 SSW 13 20 7 11 1024.7 1024.8 1.2
02/05:00am 10.5 8.2 9.1 91 0.7 SW 11 15 6 8 1024.3 1024.4 1.2
02/04:30am 10.4 6.9 8.8 90 0.8 SSW 17 24 9 13 1024.0 1024.1 0.8
02/04:00am 9.4 5.1 7.0 85 1.1 W 19 24 10 13 1023.6 1023.7 0.0
02/03:30am 8.7 4.2 6.2 84 1.1 W 19 24 10 13 1023.8 1023.9 0.0
02/03:00am 8.7 4.0 6.0 83 1.2 W 20 24 11 13 1024.1 1024.2 0.0
02/02:30am 8.5 3.9 5.8 83 1.2 W 19 22 10 12 1024.3 1024.4 0.0
02/02:00am 8.5 3.9 5.6 82 1.3 W 19 24 10 13 1024.5 1024.6 0.0
02/01:30am 8.2 3.5 5.3 82 1.3 W 19 22 10 12 1024.4 1024.5 0.0
02/01:00am 8.3 4.0 5.2 81 1.4 W 17 22 9 12 1024.5 1024.6 0.0
02/12:30am 8.2 4.2 5.1 81 1.4 W 15 19 8 10 1024.6 1024.7 0.0
02/12:00am 8.3 4.3 4.9 79 1.5 W 15 17 8 9 1025.0 1025.1 0.0
 
Date/Time
CST
Temp
°C
App
Temp
°C
Dew
Point
Rel
Hum
%
Delta-T
°C
Wind Press
QNH
hPa
Press
MSL
hPa
Rain
since 9 am
mm
Dir
 
Spd
km/h
Gust
km/h
Spd
kts
Gust
kts
01/11:30pm 8.7 4.7 4.9 77 1.7 W 15 17 8 9 1025.2 1025.3 0.0
01/11:00pm 9.2 5.1 4.6 73 2.0 W 15 17 8 9 1025.5 1025.6 0.0
01/10:30pm 9.8 5.4 4.6 70 2.3 W 17 20 9 11 1025.6 1025.7 0.0
01/10:00pm 9.8 5.3 4.4 69 2.4 W 17 20 9 11 1025.6 1025.7 0.0
01/09:30pm 9.6 5.1 4.4 70 2.3 W 17 19 9 10 1026.0 1026.1 0.0
01/09:00pm 9.9 5.8 4.1 67 2.5 W 15 20 8 11 1025.9 1026.0 0.0
01/08:30pm 10.0 5.8 4.0 66 2.6 W 15 20 8 11 1025.9 1026.0 0.0
01/08:00pm 9.9 5.3 3.9 66 2.6 W 17 20 9 11 1025.8 1025.9 0.0
01/07:30pm 9.9 5.8 4.3 68 2.5 W 15 17 8 9 1026.0 1026.1 0.0
01/07:00pm 10.4 6.4 4.8 68 2.5 W 15 19 8 10 1025.7 1025.8 0.0
01/06:30pm 11.4 7.0 4.8 64 3.0 WSW 17 20 9 11 1025.7 1025.8 0.0
01/06:00pm 12.0 7.7 5.4 64 3.0 WSW 17 20 9 11 1025.7 1025.8 0.0
01/05:30pm 12.4 8.2 5.8 64 3.1 WSW 17 22 9 12 1025.7 1025.8 0.0
01/05:00pm 12.8 8.2 5.7 62 3.3 WSW 19 24 10 13 1025.7 1025.8 0.0

Other Formats:

Comma delimited format used in spreadsheet applications
http://www.bom.gov.au/fwo/IDS60801/IDS60801.95815.axf

JavaScript Object Notation format (JSON) in row-major order
http://www.bom.gov.au/fwo/IDS60801/IDS60801.95815.json